Bavaria

Go HERE for most recent data if this page is not up to date.

Jump to table bottom
Date Time Temp F RH % AVG Wind Max Wind Wind Dir 24 Snow Depth
*01/26/20 14 23.1 89 4 10 W - 271 0.2 151.3
*01/26/20 13 22.9 77 7 11 SW - 239 0.2 151.3
*01/26/20 12 25.3 60 5 9 SW - 234 0.3 151.3
*01/26/20 11 24.2 59 5 12 SW - 228 0.3 64.2
*01/26/20 10 23.5 48 9 15 SW - 215 0.4 64.3
*01/26/20 09 21.2 46 7 11 SW - 241 0.3 64.2
*01/26/20 08 20.5 51 9 15 W - 257 0.4 64.1
*01/26/20 07 19.6 56 8 14 W - 261 0.4 64.0
*01/26/20 06 19.5 62 8 14 W - 264 0.4 64.1
*01/26/20 05 18.8 68 8 17 SW - 235 0.3 64.0
*01/26/20 04 17.9 78 11 17 SW - 223 0.3 63.9
*01/26/20 03 16.8 87 10 16 W - 274 0.3 63.9
*01/26/20 02 17.3 88 9 14 W - 261 0.2 63.8
*01/26/20 01 17.9 89 12 18 W - 250 0.2 63.7
*01/26/20 00 18.3 89 11 17 SW - 233 0.2 63.0
*01/25/20 23 18.7 89 9 16 S - 197 0.2 62.7
*01/25/20 22 18.9 89 8 13 SW - 224 0.0 63.1
*01/25/20 21 18.4 89 8 14 SW - 234 0.2 63.2
*01/25/20 20 18.1 89 11 15 W - 276 0.2 63.4
*01/25/20 19 17.9 89 10 16 W - 270 0.2 63.4
*01/25/20 18 18.0 88 11 20 W - 249 0.1 63.5
*01/25/20 17 17.6 85 12 19 W - 267 0.1 151.3
*01/25/20 16 17.3 82 12 19 SW - 244 0.1 63.1
*01/25/20 15 17.6 78 11 18 SW - 243 0.1 151.3
*01/25/20 14 17.0 80 10 18 SW - 207 2.0 151.3
*01/25/20 13 17.6 79 9 15 W - 270 2.1 151.3
*01/25/20 12 18.4 76 9 15 SW - 241 2.1 151.3
*01/25/20 11 18.7 77 8 14 S - 165 2.9 151.3
*01/25/20 10 16.5 80 7 14 NW - 310 2.7 63.9
*01/25/20 09 14.9 82 9 14 W - 264 2.6 64.3
*01/25/20 08 13.7 85 10 18 SW - 243 2.7 151.3
*01/25/20 07 14.5 87 13 19 SW - 230 2.1 151.3
*01/25/20 06 15.5 88 14 23 W - 252 1.6 151.3
*01/25/20 05 15.7 88 11 19 SW - 246 1.3 64.9
*01/25/20 04 15.4 86 10 15 W - 269 1.3 151.3
*01/25/20 03 16.1 87 11 17 SW - 210 0.1 64.0
*01/25/20 02 18.0 89 12 20 SW - 232 0.7 151.3
*01/25/20 01 18.9 89 10 15 W - 280 0.5 64.2
*01/25/20 00 17.9 88 8 12 W - 289 0.4 63.5
.